Time;durP1;ratioP1;P1;durP2;ratioP2;P2;SDS_P1;SDS_P2;PMS_P1;PMS_P2;Temp;Humidity;BMP_temperature;BMP_pressure;BME280_temperature;BME280_humidity;BME280_pressure;Samples;Min_cycle;Max_cycle;Signal;HPM_P1;HPM_P2
2022/05/24 00:01:44;;;;;;;7.35;5.90;;;;;;;19.05;100.00;97071.06;5030955;28;20381;-77
2022/05/24 00:04:09;;;;;;;9.23;5.55;;;;;;;18.89;99.32;97062.06;5032011;28;20029;-75
2022/05/24 00:06:35;;;;;;;8.85;5.53;;;;;;;18.87;99.18;97055.31;5031995;28;20083;-78
2022/05/24 00:09:00;;;;;;;8.73;5.13;;;;;;;18.82;97.44;97070.31;5032188;28;20030;-76
2022/05/24 00:11:26;;;;;;;6.35;4.45;;;;;;;18.74;97.49;97049.16;5033174;28;20037;-77
2022/05/24 00:13:51;;;;;;;7.13;4.95;;;;;;;18.88;96.22;97060.50;5034625;28;20025;-74
2022/05/24 00:16:17;;;;;;;7.00;4.78;;;;;;;18.73;91.96;97053.13;5032762;28;20478;-76
2022/05/24 00:18:43;;;;;;;9.40;4.82;;;;;;;18.69;90.75;97049.50;5033767;28;20029;-78
2022/05/24 00:21:08;;;;;;;8.35;4.15;;;;;;;18.71;90.12;97061.00;5038284;28;20014;-76
2022/05/24 00:23:34;;;;;;;4.85;3.83;;;;;;;18.66;92.34;97070.44;5033689;28;20088;-75
2022/05/24 00:26:03;;;;;;;7.40;4.53;;;;;;;18.68;93.71;97075.59;5031987;28;20083;-75
2022/05/24 00:28:30;;;;;;;8.75;4.72;;;;;;;18.59;93.32;97063.94;5031616;28;20026;-75
2022/05/24 00:30:57;;;;;;;6.90;4.30;;;;;;;18.59;92.46;97075.03;5031841;28;20026;-75
2022/05/24 00:33:23;;;;;;;6.45;4.25;;;;;;;18.47;93.82;97070.44;5029777;28;20037;-75
2022/05/24 00:35:49;;;;;;;10.40;4.95;;;;;;;18.50;93.11;97080.81;5030966;28;20025;-75
2022/05/24 00:38:28;;;;;;;6.75;4.28;;;;;;;18.40;92.67;97072.28;5031297;28;20040;-75
2022/05/24 00:41:27;;;;;;;8.93;5.00;;;;;;;18.31;95.83;97080.03;5031333;28;20028;-75
2022/05/24 00:43:56;;;;;;;8.52;4.47;;;;;;;18.36;94.79;97076.94;5031686;28;20037;-74
2022/05/24 00:46:26;;;;;;;6.03;4.22;;;;;;;18.22;93.79;97069.19;5031495;28;20033;-76
2022/05/24 00:48:57;;;;;;;7.07;5.05;;;;;;;18.24;94.87;97071.56;5031018;28;20026;-75
2022/05/24 00:51:31;;;;;;;7.47;4.47;;;;;;;18.20;95.71;97072.31;5046480;28;20517;-75
2022/05/24 00:53:56;;;;;;;8.63;4.60;;;;;;;18.18;93.25;97074.66;5031201;28;20092;-75
2022/05/24 00:56:50;;;;;;;12.32;4.93;;;;;;;18.23;92.20;97065.22;5031210;28;20025;-74
2022/05/24 00:59:28;;;;;;;7.60;4.25;;;;;;;18.29;93.05;97060.22;5031118;28;20513;-74
2022/05/24 01:01:54;;;;;;;6.78;4.13;;;;;;;18.27;92.32;97059.75;5031084;28;20108;-77
2022/05/24 01:04:20;;;;;;;10.75;4.63;;;;;;;18.29;93.31;97062.97;5030629;28;20112;-74
2022/05/24 01:06:49;;;;;;;5.22;3.83;;;;;;;18.23;92.73;97048.63;5029770;28;20030;-76
2022/05/24 01:09:22;;;;;;;6.13;4.15;;;;;;;18.29;92.29;97055.47;5030679;28;20025;-76
2022/05/24 01:11:56;;;;;;;5.13;4.07;;;;;;;18.33;91.11;97066.59;5030983;28;20026;-75
2022/05/24 01:14:24;;;;;;;6.50;4.78;;;;;;;18.28;91.16;97053.06;5031412;28;20029;-74
2022/05/24 01:16:51;;;;;;;6.50;4.53;;;;;;;18.32;91.74;97053.94;5031138;28;20111;-74
2022/05/24 01:19:29;;;;;;;6.57;4.13;;;;;;;18.33;90.90;97055.53;5030835;28;20029;-74
2022/05/24 01:22:03;;;;;;;5.90;4.25;;;;;;;18.37;90.68;97070.25;5030892;28;20140;-74
2022/05/24 01:24:39;;;;;;;6.85;4.20;;;;;;;18.45;91.24;97067.22;5030682;28;20040;-74
2022/05/24 01:27:05;;;;;;;6.85;4.18;;;;;;;18.52;89.43;97063.81;5030744;28;20041;-74
2022/05/24 01:29:31;;;;;;;6.57;4.47;;;;;;;18.39;88.41;97046.53;5030841;28;20029;-74
2022/05/24 01:37:29;;;;;;;8.20;6.47;;;;;;;18.53;98.40;97054.34;5030920;28;20036;-75
2022/05/24 01:39:57;;;;;;;9.80;5.72;;;;;;;18.60;100.00;97068.34;5030552;28;20393;-76
2022/05/24 01:42:24;;;;;;;10.57;6.68;;;;;;;18.55;100.00;97063.88;5030594;28;20061;-75
2022/05/24 01:44:57;;;;;;;9.15;6.93;;;;;;;18.42;100.00;97072.72;5030865;28;20121;-76
2022/05/24 01:47:24;;;;;;;14.85;7.00;;;;;;;18.27;100.00;97059.75;5045878;28;20045;-76
2022/05/24 01:49:58;;;;;;;9.75;6.85;;;;;;;18.09;100.00;97060.25;5045768;28;20509;-76
2022/05/24 01:52:44;;;;;;;8.95;7.00;;;;;;;18.12;100.00;97084.41;5030621;28;20025;-77
2022/05/24 01:55:32;;;;;;;10.32;6.97;;;;;;;17.99;100.00;97066.38;5025026;28;20040;-75
2022/05/24 01:58:04;;;;;;;12.00;7.50;;;;;;;18.05;100.00;97081.50;5025933;28;20197;-76
2022/05/24 02:00:29;;;;;;;9.80;6.88;;;;;;;18.00;100.00;97072.69;5028745;28;20044;-76
2022/05/24 02:02:55;;;;;;;8.90;6.75;;;;;;;18.03;100.00;97077.50;5010453;28;20018;-76
2022/05/24 02:05:40;;;;;;;10.25;7.63;;;;;;;17.99;100.00;97074.66;5010540;28;20486;-75
2022/05/24 02:08:07;;;;;;;11.47;7.83;;;;;;;17.88;100.00;97059.03;5012380;28;20034;-75
2022/05/24 02:10:39;;;;;;;8.30;7.05;;;;;;;17.89;100.00;97074.44;5014320;28;20029;-76
2022/05/24 02:13:05;;;;;;;10.50;7.43;;;;;;;17.97;100.00;97074.25;5019397;28;20374;-77
2022/05/24 02:15:35;;;;;;;9.55;6.68;;;;;;;17.94;100.00;97083.28;5034517;28;20656;-75
2022/05/24 02:18:09;;;;;;;7.55;6.40;;;;;;;17.89;100.00;97083.53;5033684;28;20032;-76
2022/05/24 02:20:37;;;;;;;7.43;5.95;;;;;;;17.85;100.00;97077.16;5049128;28;20041;-75
2022/05/24 02:23:03;;;;;;;10.02;5.63;;;;;;;17.77;100.00;97069.84;5033823;28;20030;-76
2022/05/24 02:25:41;;;;;;;8.02;6.55;;;;;;;17.70;100.00;97075.22;5033763;28;20092;-75
2022/05/24 02:28:09;;;;;;;7.70;5.68;;;;;;;17.70;100.00;97071.69;5033778;28;20033;-77
2022/05/24 02:30:37;;;;;;;8.65;5.95;;;;;;;17.75;100.00;97069.44;5033941;28;20482;-75
2022/05/24 02:33:03;;;;;;;9.27;5.65;;;;;;;17.69;100.00;97061.78;5035551;28;20030;-76
2022/05/24 02:35:28;;;;;;;10.85;6.50;;;;;;;17.79;100.00;97075.03;5041479;28;20482;-76
2022/05/24 02:37:54;;;;;;;12.38;6.80;;;;;;;17.71;100.00;97073.28;5036382;28;20056;-77
2022/05/24 02:43:03;;;;;;;10.55;6.50;;;;;;;17.53;100.00;97070.09;5033436;28;20040;-76
2022/05/24 02:45:29;;;;;;;9.15;6.38;;;;;;;17.45;100.00;97051.75;5033585;28;20025;-75
2022/05/24 02:47:55;;;;;;;15.85;6.43;;;;;;;17.41;100.00;97057.22;5033882;28;20125;-78
2022/05/24 02:50:21;;;;;;;12.27;6.78;;;;;;;17.36;100.00;97053.91;5034728;28;20022;-76
2022/05/24 02:52:47;;;;;;;12.15;6.82;;;;;;;17.33;100.00;97065.69;5019156;28;20084;-76
2022/05/24 02:55:13;;;;;;;9.25;7.28;;;;;;;17.28;100.00;97057.69;5013012;28;20033;-77
2022/05/24 02:57:39;;;;;;;12.63;7.22;;;;;;;17.24;100.00;97057.63;5018887;28;20042;-76
2022/05/24 03:00:08;;;;;;;10.52;7.85;;;;;;;17.20;100.00;97064.25;5032037;28;20033;-76
2022/05/24 03:02:34;;;;;;;11.15;8.00;;;;;;;17.02;100.00;97050.00;5032881;28;20112;-76
2022/05/24 03:05:01;;;;;;;9.50;7.88;;;;;;;17.10;100.00;97060.84;5032996;28;20125;-75
2022/05/24 03:10:11;;;;;;;9.93;8.30;;;;;;;17.00;100.00;97036.56;5032001;28;20088;-75
2022/05/24 03:15:20;;;;;;;14.65;8.10;;;;;;;16.99;100.00;97046.00;5033351;28;20357;-76
2022/05/24 03:17:45;;;;;;;10.50;7.82;;;;;;;17.00;100.00;97042.06;5031808;28;20022;-75
2022/05/24 03:20:11;;;;;;;10.27;7.47;;;;;;;16.93;100.00;97043.84;5032333;28;20525;-75
2022/05/24 03:22:36;;;;;;;10.48;7.60;;;;;;;16.95;100.00;97038.75;5032582;28;20095;-77
2022/05/24 03:25:02;;;;;;;13.50;8.63;;;;;;;17.08;100.00;97060.41;5032549;28;20112;-76
2022/05/24 03:27:28;;;;;;;12.20;8.43;;;;;;;16.95;100.00;97056.16;5032707;28;20075;-77
2022/05/24 03:29:53;;;;;;;11.23;8.07;;;;;;;16.91;100.00;97060.00;5032571;28;20100;-76
2022/05/24 03:32:19;;;;;;;11.00;7.53;;;;;;;16.91;100.00;97038.72;5032368;28;20025;-77
2022/05/24 03:34:45;;;;;;;11.25;8.10;;;;;;;16.93;100.00;97038.34;5032685;28;20021;-75
2022/05/24 03:37:10;;;;;;;11.10;8.05;;;;;;;16.84;100.00;97027.47;5032484;28;20121;-76
2022/05/24 03:39:36;;;;;;;11.65;7.80;;;;;;;16.94;100.00;97040.75;5032477;28;20040;-76
2022/05/24 03:42:02;;;;;;;10.55;7.90;;;;;;;17.10;100.00;97052.56;5032355;28;20063;-76
2022/05/24 03:44:28;;;;;;;12.60;8.23;;;;;;;17.01;100.00;97042.84;5032712;28;20470;-76
2022/05/24 03:46:54;;;;;;;9.52;8.02;;;;;;;16.93;100.00;97036.38;5032314;28;20029;-75
2022/05/24 03:49:20;;;;;;;9.65;7.03;;;;;;;17.01;100.00;97049.19;5032096;28;20037;-75
2022/05/24 03:51:45;;;;;;;12.65;8.07;;;;;;;17.00;100.00;97047.59;5032013;28;20579;-77
2022/05/24 03:54:12;;;;;;;11.63;8.23;;;;;;;17.08;100.00;97052.13;5031993;28;20026;-75
2022/05/24 03:56:38;;;;;;;10.25;7.82;;;;;;;17.14;100.00;97066.44;5031907;28;20044;-77
2022/05/24 03:59:04;;;;;;;11.48;7.85;;;;;;;17.11;100.00;97059.69;5031888;28;20116;-76
2022/05/24 04:01:30;;;;;;;12.43;8.65;;;;;;;17.27;100.00;97056.09;5032236;28;20776;-75
2022/05/24 04:03:55;;;;;;;9.93;7.82;;;;;;;17.39;100.00;97054.00;5032152;28;20378;-77
2022/05/24 04:06:21;;;;;;;13.55;7.80;;;;;;;17.51;100.00;97072.44;5031970;28;20053;-77
2022/05/24 04:08:47;;;;;;;9.85;7.82;;;;;;;17.58;100.00;97072.59;5031989;28;20021;-77
2022/05/24 04:11:13;;;;;;;11.82;7.57;;;;;;;17.64;100.00;97076.69;5031836;28;20025;-76
2022/05/24 04:13:41;;;;;;;12.50;7.43;;;;;;;17.64;100.00;97077.50;5031973;28;20033;-76
2022/05/24 04:16:08;;;;;;;10.55;8.00;;;;;;;17.73;100.00;97065.44;5032318;28;20063;-76
2022/05/24 04:18:35;;;;;;;11.65;7.85;;;;;;;17.91;100.00;97075.69;5031644;28;20033;-77
2022/05/24 04:21:00;;;;;;;12.82;7.80;;;;;;;18.05;100.00;97070.44;5031809;28;20021;-75
2022/05/24 04:23:26;;;;;;;11.75;8.10;;;;;;;18.08;100.00;97068.91;5030460;28;20083;-76
2022/05/24 04:25:53;;;;;;;10.57;6.90;;;;;;;18.35;100.00;97075.34;5047163;28;20030;-76
2022/05/24 04:28:19;;;;;;;10.05;7.07;;;;;;;18.52;100.00;97074.91;5031445;28;20108;-75
2022/05/24 04:30:46;;;;;;;8.90;7.47;;;;;;;18.68;100.00;97070.03;5031012;28;20029;-76
2022/05/24 04:33:12;;;;;;;11.23;7.93;;;;;;;18.76;100.00;97070.97;5031607;28;20474;-74
2022/05/24 04:35:38;;;;;;;12.13;7.32;;;;;;;18.68;100.00;97065.31;5031444;28;20053;-75
2022/05/24 04:38:03;;;;;;;11.27;7.35;;;;;;;18.67;100.00;97066.47;5031424;28;20471;-74
2022/05/24 04:43:13;;;;;;;9.65;7.47;;;;;;;18.38;100.00;97055.25;5031536;28;20040;-76
2022/05/24 04:45:38;;;;;;;8.80;7.13;;;;;;;18.69;100.00;97071.66;5032007;28;20025;-75
2022/05/24 04:48:06;;;;;;;13.35;8.85;;;;;;;18.79;100.00;97073.81;5032312;28;20045;-77
2022/05/24 04:50:32;;;;;;;8.90;7.43;;;;;;;19.00;100.00;97092.75;5034317;28;20057;-77
2022/05/24 04:52:58;;;;;;;9.73;8.60;;;;;;;18.99;100.00;97069.78;5031422;28;20100;-77
2022/05/24 04:55:26;;;;;;;12.63;7.60;;;;;;;19.11;100.00;97080.66;5029767;28;20025;-77
2022/05/24 04:57:55;;;;;;;12.02;8.13;;;;;;;19.27;100.00;97072.19;5018947;28;20513;-75
2022/05/24 05:00:22;;;;;;;9.02;7.25;;;;;;;19.19;100.00;97070.47;5030872;28;20030;-75
2022/05/24 05:02:48;;;;;;;9.50;7.88;;;;;;;19.25;100.00;97083.66;5018844;28;20048;-76
2022/05/24 05:05:15;;;;;;;11.90;7.65;;;;;;;19.24;100.00;97078.47;5011523;28;20030;-75
2022/05/24 05:07:41;;;;;;;10.82;7.72;;;;;;;19.36;100.00;97089.34;5011283;28;20080;-76
2022/05/24 05:10:08;;;;;;;13.10;7.70;;;;;;;19.39;100.00;97085.84;5011278;28;20030;-76
2022/05/24 05:12:34;;;;;;;10.27;7.82;;;;;;;19.49;100.00;97082.44;5011006;28;20069;-78
2022/05/24 05:14:59;;;;;;;10.00;7.90;;;;;;;19.56;100.00;97087.31;5023152;28;20033;-75
2022/05/24 05:17:25;;;;;;;12.13;8.57;;;;;;;19.52;100.00;97092.00;5030753;28;20056;-82
2022/05/24 05:19:51;;;;;;;11.48;8.00;;;;;;;19.62;100.00;97085.78;5031697;28;20029;-76
2022/05/24 05:22:18;;;;;;;12.80;7.85;;;;;;;19.66;100.00;97083.88;5030897;28;20061;-75
2022/05/24 05:24:44;;;;;;;12.30;7.88;;;;;;;19.57;100.00;97089.72;5030589;28;20707;-76
2022/05/24 05:27:10;;;;;;;10.25;7.75;;;;;;;19.58;100.00;97087.72;5030634;28;20024;-76
2022/05/24 05:32:30;;;;;;;9.65;7.38;;;;;;;19.84;100.00;97089.66;5030385;28;20084;-75
2022/05/24 05:34:57;;;;;;;10.60;7.78;;;;;;;19.88;100.00;97085.75;5031317;28;20029;-73
2022/05/24 05:37:23;;;;;;;12.02;8.32;;;;;;;19.94;100.00;97089.00;5030391;28;20025;-74
2022/05/24 05:39:49;;;;;;;11.27;8.35;;;;;;;20.07;100.00;97090.34;5030389;28;20025;-73
2022/05/24 05:42:15;;;;;;;10.93;7.13;;;;;;;20.21;100.00;97094.09;5030818;28;20436;-73
2022/05/24 05:44:41;;;;;;;14.88;7.78;;;;;;;20.35;100.00;97095.47;5035081;28;20037;-73
2022/05/24 05:47:07;;;;;;;10.95;7.78;;;;;;;20.45;100.00;97101.16;5034676;28;20496;-74
2022/05/24 05:49:32;;;;;;;13.57;7.22;;;;;;;20.54;100.00;97100.84;5034243;28;20096;-73
2022/05/24 05:51:58;;;;;;;8.18;7.20;;;;;;;20.67;100.00;97091.06;5020784;28;20045;-74
2022/05/24 05:54:24;;;;;;;9.23;7.07;;;;;;;20.83;100.00;97088.81;5014498;28;20083;-73
2022/05/24 05:56:50;;;;;;;11.55;7.90;;;;;;;20.84;100.00;97090.41;5014481;28;20060;-74
2022/05/24 05:59:16;;;;;;;13.68;7.75;;;;;;;20.86;100.00;97090.03;5029716;28;20123;-73
2022/05/24 06:01:42;;;;;;;9.98;7.75;;;;;;;20.88;100.00;97094.03;5013095;28;20116;-73
2022/05/24 06:04:09;;;;;;;12.27;7.43;;;;;;;21.00;100.00;97099.28;5029851;28;20077;-73
2022/05/24 06:06:40;;;;;;;9.75;6.72;;;;;;;21.03;98.92;97089.38;5014211;28;20499;-73
2022/05/24 06:09:06;;;;;;;9.38;7.07;;;;;;;21.25;98.17;97094.75;5014235;28;20108;-73
2022/05/24 06:11:31;;;;;;;10.13;7.18;;;;;;;21.35;96.74;97088.47;5014310;28;20157;-73
2022/05/24 06:13:57;;;;;;;11.40;7.72;;;;;;;21.38;97.09;97088.88;5014158;28;20041;-73
2022/05/24 06:16:22;;;;;;;8.90;6.60;;;;;;;21.46;96.63;97087.75;5014571;28;20441;-74
2022/05/24 06:18:48;;;;;;;11.13;7.60;;;;;;;21.55;95.34;97069.50;5013778;28;20048;-73
2022/05/24 06:21:13;;;;;;;10.63;6.75;;;;;;;21.75;93.34;97083.94;5013859;28;20029;-74
2022/05/24 06:23:39;;;;;;;10.65;6.43;;;;;;;21.87;94.05;97089.19;5013849;28;20029;-73
2022/05/24 06:26:05;;;;;;;10.02;6.72;;;;;;;21.96;94.13;97088.88;5013861;28;20018;-73
2022/05/24 06:28:31;;;;;;;13.98;7.18;;;;;;;21.66;95.13;97080.72;5013863;28;20156;-74
2022/05/24 06:30:57;;;;;;;11.50;6.53;;;;;;;21.71;96.13;97088.69;5013565;28;20113;-74
2022/05/24 06:33:23;;;;;;;11.25;7.38;;;;;;;21.52;97.66;97091.78;5025414;28;20522;-73
2022/05/24 06:35:48;;;;;;;15.68;6.82;;;;;;;21.50;98.79;97083.00;5033200;28;20167;-73
2022/05/24 06:38:15;;;;;;;10.35;7.07;;;;;;;21.59;98.14;97089.00;5031730;28;20017;-73
2022/05/24 06:40:42;;;;;;;8.02;6.43;;;;;;;21.72;97.51;97087.50;5027434;28;20029;-73
2022/05/24 06:43:07;;;;;;;11.32;6.57;;;;;;;21.93;95.92;97084.84;5031349;28;20029;-73
2022/05/24 06:45:33;;;;;;;10.10;6.53;;;;;;;22.24;94.10;97091.78;5048593;28;20048;-73
2022/05/24 06:47:59;;;;;;;9.05;6.35;;;;;;;22.39;93.18;97097.00;5032807;28;20026;-73
2022/05/24 06:50:25;;;;;;;7.82;5.68;;;;;;;22.71;92.59;97099.88;5032914;28;20533;-73
2022/05/24 06:52:56;;;;;;;10.35;5.95;;;;;;;22.90;90.42;97095.91;5031590;28;20580;-73
2022/05/24 06:55:22;;;;;;;9.02;5.22;;;;;;;22.98;90.03;97094.75;5050078;28;20028;-73
2022/05/24 06:57:50;;;;;;;9.57;5.45;;;;;;;23.16;89.77;97100.31;5043485;28;20049;-73
2022/05/24 07:03:13;;;;;;;9.00;5.80;;;;;;;23.26;89.39;97100.34;5037248;28;20521;-72
2022/05/24 07:05:40;;;;;;;8.23;5.63;;;;;;;23.17;88.49;97097.16;5033382;28;20482;-73
2022/05/24 07:08:06;;;;;;;7.10;5.50;;;;;;;23.40;88.13;97097.53;5032321;28;20478;-73
2022/05/24 07:10:33;;;;;;;8.50;5.15;;;;;;;23.68;84.89;97093.13;5031692;28;20075;-73
2022/05/24 07:13:11;;;;;;;8.38;5.70;;;;;;;23.81;85.64;97097.06;5032060;28;20034;-72
2022/05/24 07:15:37;;;;;;;7.57;5.38;;;;;;;23.89;82.08;97087.50;5032321;28;20041;-72
2022/05/24 07:18:03;;;;;;;10.98;6.70;;;;;;;24.02;83.04;97091.44;5031656;28;20025;-73
2022/05/24 07:20:30;;;;;;;7.93;5.13;;;;;;;24.01;82.84;97089.84;5031878;28;20120;-73
2022/05/24 07:23:14;;;;;;;8.00;5.43;;;;;;;24.08;81.19;97098.22;5031478;28;20409;-72
2022/05/24 07:25:41;;;;;;;10.32;5.53;;;;;;;24.20;80.32;97100.59;5031114;28;20043;-72
2022/05/24 07:28:08;;;;;;;9.00;5.45;;;;;;;24.44;80.75;97098.88;5031557;28;20025;-75
2022/05/24 07:30:33;;;;;;;8.55;5.20;;;;;;;24.55;79.96;97096.03;5031495;28;20818;-72
2022/05/24 07:32:59;;;;;;;6.03;5.03;;;;;;;24.65;78.64;97097.97;5031158;28;20029;-72
2022/05/24 07:35:26;;;;;;;13.55;6.07;;;;;;;24.82;77.01;97105.47;5031464;28;20083;-72
2022/05/24 07:37:51;;;;;;;10.52;4.53;;;;;;;24.92;73.74;97099.81;5031202;28;20534;-72
2022/05/24 07:45:48;;;;;;;10.88;4.75;;;;;;;25.62;72.36;97091.25;5032510;28;20405;-73
2022/05/24 07:48:14;;;;;;;8.32;4.80;;;;;;;25.79;72.89;97085.47;5032230;28;20029;-72
2022/05/24 07:50:40;;;;;;;5.57;4.68;;;;;;;25.83;71.24;97091.03;5033229;28;20112;-71
2022/05/24 07:53:07;;;;;;;6.72;4.82;;;;;;;25.89;70.50;97084.56;5032219;28;20668;-72
2022/05/24 07:55:33;;;;;;;7.20;4.90;;;;;;;25.93;69.94;97078.91;5032164;28;20171;-71
2022/05/24 07:57:58;;;;;;;10.57;5.30;;;;;;;26.04;69.70;97090.78;5030758;28;20128;-71
2022/05/24 08:00:24;;;;;;;7.13;4.75;;;;;;;26.02;69.59;97087.63;5031945;28;20029;-71
2022/05/24 08:02:51;;;;;;;4.90;4.20;;;;;;;26.21;67.26;97092.63;5031636;28;20447;-72
2022/05/24 08:05:18;;;;;;;5.72;4.20;;;;;;;26.30;67.58;97092.91;5030996;28;20041;-71
2022/05/24 08:07:45;;;;;;;7.95;4.03;;;;;;;26.47;66.54;97097.50;5033058;28;20101;-72
2022/05/24 08:10:12;;;;;;;8.55;4.63;;;;;;;26.39;66.82;97093.19;5032331;28;20064;-71
2022/05/24 08:12:37;;;;;;;8.68;4.57;;;;;;;26.29;67.13;97096.13;5031727;28;20032;-71
2022/05/24 08:15:03;;;;;;;7.35;4.63;;;;;;;26.43;64.55;97095.97;5031259;28;20026;-71
2022/05/24 08:17:29;;;;;;;9.90;4.38;;;;;;;26.60;65.08;97089.31;5032167;28;20438;-72
2022/05/24 08:19:54;;;;;;;7.38;4.47;;;;;;;26.57;64.60;97093.75;5031821;28;20474;-71
2022/05/24 08:22:21;;;;;;;5.85;4.25;;;;;;;26.44;64.77;97087.13;5031512;28;20437;-71
2022/05/24 08:24:46;;;;;;;5.93;3.78;;;;;;;26.47;65.58;97091.88;5030852;28;20033;-71
2022/05/24 08:27:14;;;;;;;8.90;4.43;;;;;;;26.73;62.83;97086.72;5031675;28;20017;-71
2022/05/24 08:29:40;;;;;;;7.45;4.18;;;;;;;26.60;63.67;97090.09;5031998;28;20028;-71
2022/05/24 08:32:06;;;;;;;7.25;3.80;;;;;;;26.49;61.16;97081.06;5031256;28;20056;-72
2022/05/24 08:34:32;;;;;;;7.72;4.30;;;;;;;26.29;62.25;97080.09;5031661;28;20025;-71
2022/05/24 08:36:59;;;;;;;6.07;4.45;;;;;;;26.14;62.38;97081.47;5031604;28;20398;-72
2022/05/24 08:39:24;;;;;;;7.82;4.07;;;;;;;26.10;61.92;97080.72;5031642;28;20029;-71
2022/05/24 08:41:55;;;;;;;5.72;3.88;;;;;;;26.21;63.02;97078.63;5031231;28;20040;-72
2022/05/24 08:50:05;;;;;;;6.90;4.40;;;;;;;26.55;60.45;97079.38;5031729;28;20068;-73
2022/05/24 08:53:05;;;;;;;10.15;3.90;;;;;;;26.65;60.29;97080.44;5031357;28;20031;-72
2022/05/24 08:55:32;;;;;;;9.27;3.80;;;;;;;26.32;60.31;97070.84;5030022;28;20072;-74
2022/05/24 08:57:59;;;;;;;7.07;3.78;;;;;;;25.99;59.89;97074.44;5030930;28;20052;-74
2022/05/24 09:00:33;;;;;;;6.10;4.07;;;;;;;26.08;60.76;97080.34;5031155;28;20494;-75
2022/05/24 09:03:02;;;;;;;6.15;4.15;;;;;;;25.99;60.39;97075.25;5031413;28;20035;-75
2022/05/24 09:05:49;;;;;;;8.00;3.55;;;;;;;26.24;60.66;97079.78;5031327;28;20033;-72
2022/05/24 09:08:34;;;;;;;7.65;3.53;;;;;;;26.53;59.50;97081.00;5031598;28;20395;-72
2022/05/24 09:11:27;;;;;;;5.72;3.80;;;;;;;25.86;59.19;97073.38;5031487;28;20434;-72
2022/05/24 09:14:18;;;;;;;9.13;3.67;;;;;;;26.15;60.26;97074.66;5034659;28;20449;-73
2022/05/24 09:16:47;;;;;;;4.30;3.40;;;;;;;26.09;61.43;97076.34;5038494;28;20034;-74
2022/05/24 09:19:21;;;;;;;7.25;3.55;;;;;;;25.96;62.01;97075.28;5032245;28;20037;-73
2022/05/24 09:21:51;;;;;;;7.53;4.23;;;;;;;26.05;61.33;97072.78;5030938;28;20037;-73
2022/05/24 09:24:30;;;;;;;6.40;3.92;;;;;;;25.95;60.68;97074.47;5031115;28;20029;-72
2022/05/24 09:27:16;;;;;;;9.48;3.67;;;;;;;26.22;59.27;97057.75;5030775;28;20029;-74
2022/05/24 09:29:56;;;;;;;6.20;3.95;;;;;;;26.08;59.05;97069.13;5031438;28;20051;-70
2022/05/24 09:32:28;;;;;;;7.20;3.50;;;;;;;26.55;58.14;97076.56;5030592;28;20148;-71
2022/05/24 09:35:11;;;;;;;9.68;4.82;;;;;;;26.90;56.44;97071.69;5030552;28;20023;-71
2022/05/24 09:37:39;;;;;;;5.65;3.53;;;;;;;26.94;55.65;97076.00;5030648;28;20037;-72
2022/05/24 09:40:06;;;;;;;9.60;3.90;;;;;;;27.12;55.61;97075.75;5030477;28;20394;-71
2022/05/24 09:42:36;;;;;;;6.90;3.35;;;;;;;27.29;56.03;97083.06;5030723;28;20033;-72
2022/05/24 09:45:27;;;;;;;10.77;4.15;;;;;;;27.65;55.41;97081.28;5030830;28;20029;-71
2022/05/24 09:47:52;;;;;;;5.57;4.00;;;;;;;27.66;54.86;97074.41;5030542;28;20029;-72
2022/05/24 09:50:29;;;;;;;7.47;3.95;;;;;;;27.54;53.71;97075.03;5030848;28;20037;-70
2022/05/24 09:53:14;;;;;;;9.57;4.07;;;;;;;27.50;54.17;97079.91;5031036;28;20547;-71
2022/05/24 09:55:45;;;;;;;6.80;4.20;;;;;;;27.40;54.01;97072.47;5031615;28;20083;-71
2022/05/24 09:58:23;;;;;;;11.68;3.90;;;;;;;27.88;53.30;97076.84;5030952;28;20498;-70
2022/05/24 10:01:23;;;;;;;12.27;3.92;;;;;;;28.01;53.33;97069.31;5030374;28;20029;-71
2022/05/24 10:03:49;;;;;;;9.75;4.15;;;;;;;28.01;53.33;97069.31;5025399;28;20047;-71
2022/05/24 10:06:24;;;;;;;7.18;4.32;;;;;;;27.80;54.00;97075.38;5030322;28;20414;-70
2022/05/24 10:08:57;;;;;;;10.85;3.80;;;;;;;27.56;53.30;97069.78;5030530;28;20069;-71
2022/05/24 10:11:28;;;;;;;8.20;4.28;;;;;;;27.69;53.08;97071.97;5030263;28;20025;-72
2022/05/24 10:14:05;;;;;;;6.72;3.40;;;;;;;27.76;52.47;97066.19;5030334;28;20478;-70
2022/05/24 10:16:36;;;;;;;6.65;3.88;;;;;;;27.98;52.79;97064.56;5030817;28;20025;-72
2022/05/24 10:19:17;;;;;;;10.95;4.25;;;;;;;28.17;52.56;97072.25;5030127;28;20104;-74
2022/05/24 10:21:50;;;;;;;7.63;3.85;;;;;;;28.29;51.00;97068.78;5029933;28;20495;-71
2022/05/24 10:24:22;;;;;;;5.68;3.75;;;;;;;28.02;50.48;97070.94;5030500;28;20052;-71
2022/05/24 10:27:24;;;;;;;4.18;3.40;;;;;;;27.97;50.92;97063.00;5031070;28;20112;-71
2022/05/24 10:30:11;;;;;;;6.15;3.42;;;;;;;28.29;50.43;97063.16;5032026;28;20042;-76
2022/05/24 10:38:35;;;;;;;12.13;4.03;;;;;;;28.19;49.14;97067.00;5012853;28;20041;-74
2022/05/24 10:41:30;;;;;;;6.40;3.83;;;;;;;28.35;49.68;97064.22;5013423;28;20030;-74
2022/05/24 10:44:01;;;;;;;6.13;3.37;;;;;;;28.42;50.06;97072.53;5027023;28;20045;-76
2022/05/24 10:46:32;;;;;;;6.05;3.80;;;;;;;28.47;49.26;97069.22;5014312;28;20034;-75
2022/05/24 10:49:06;;;;;;;7.97;3.72;;;;;;;28.02;49.41;97068.91;5014347;28;20478;-74
2022/05/24 10:51:52;;;;;;;6.25;3.70;;;;;;;27.55;50.25;97071.00;5014243;28;20053;-77
2022/05/24 10:54:20;;;;;;;;;;;;;;;27.07;51.17;97064.97;5015244;28;20037;-75
2022/05/24 10:57:04;;;;;;;4.78;3.83;;;;;;;26.53;52.34;97064.94;5013884;28;20369;-76
2022/05/24 10:59:32;;;;;;;7.43;3.90;;;;;;;26.63;52.87;97066.81;5014085;28;20451;-76
2022/05/24 11:02:08;;;;;;;9.13;3.90;;;;;;;26.56;52.13;97061.28;5013761;28;20838;-75
2022/05/24 11:04:45;;;;;;;7.60;3.55;;;;;;;26.48;53.04;97054.19;5013583;28;20025;-76
2022/05/24 11:07:16;;;;;;;7.15;4.35;;;;;;;26.75;53.80;97061.84;5013718;28;20065;-75
2022/05/24 11:09:50;;;;;;;10.98;3.78;;;;;;;26.76;52.68;97060.63;5013773;28;20022;-75
2022/05/24 11:12:21;;;;;;;5.82;3.35;;;;;;;27.13;50.62;97046.41;5013739;28;20471;-75
2022/05/24 11:15:01;;;;;;;7.70;3.40;;;;;;;27.23;50.24;97048.25;5013685;28;20430;-75
2022/05/24 11:17:26;;;;;;;4.70;3.78;;;;;;;26.86;50.79;97046.47;5013856;28;20022;-75
2022/05/24 11:19:55;;;;;;;4.72;3.25;;;;;;;27.04;50.62;97044.16;5018738;28;20042;-75
2022/05/24 11:22:39;;;;;;;9.35;3.20;;;;;;;27.23;50.00;97048.25;5033244;28;20026;-75
2022/05/24 11:25:43;;;;;;;4.60;3.50;;;;;;;27.12;51.11;97050.47;5033529;28;20036;-74
2022/05/24 11:28:32;;;;;;;5.57;4.00;;;;;;;27.14;50.50;97056.44;5019657;28;20037;-74
2022/05/24 11:31:18;;;;;;;5.72;3.47;;;;;;;27.15;51.43;97055.22;5041068;28;20033;-74
2022/05/24 11:33:44;;;;;;;6.35;3.60;;;;;;;27.33;51.11;97040.88;5034686;28;20017;-75
2022/05/24 11:36:31;;;;;;;9.95;3.88;;;;;;;27.43;50.81;97043.53;5031857;28;20115;-74
2022/05/24 11:39:24;;;;;;;7.70;3.55;;;;;;;27.46;50.58;97048.28;5029528;28;20038;-74
2022/05/24 11:41:49;;;;;;;5.97;3.38;;;;;;;27.75;49.96;97033.72;5028043;28;20068;-73
2022/05/24 11:44:34;;;;;;;7.60;3.63;;;;;;;27.66;50.71;97049.09;5029580;28;20493;-75
2022/05/24 11:47:00;;;;;;;5.70;3.42;;;;;;;27.48;50.82;97031.00;5033230;28;20817;-72
2022/05/24 11:49:27;;;;;;;7.57;3.83;;;;;;;27.47;51.71;97030.19;5033420;28;20116;-73
2022/05/24 11:51:54;;;;;;;6.20;3.33;;;;;;;27.64;51.12;97031.09;5033793;28;20175;-75
2022/05/24 11:54:23;;;;;;;5.28;3.45;;;;;;;27.84;51.00;97043.16;5030797;28;20371;-75
2022/05/24 11:57:00;;;;;;;6.47;3.47;;;;;;;27.86;49.06;97037.91;5032686;28;20128;-75
2022/05/24 11:59:43;;;;;;;8.30;3.83;;;;;;;28.02;48.89;97035.16;5032629;28;20512;-73
2022/05/24 12:02:20;;;;;;;7.30;3.78;;;;;;;28.20;48.48;97034.81;5034172;28;20060;-75
2022/05/24 12:08:30;;;;;;;8.85;3.50;;;;;;;28.30;47.95;97028.16;5032536;28;20040;-74
2022/05/24 12:11:05;;;;;;;4.47;3.03;;;;;;;28.25;47.92;97027.91;5031638;28;20033;-74
2022/05/24 12:13:35;;;;;;;5.57;3.50;;;;;;;28.42;47.39;97033.13;5028630;28;20032;-71
2022/05/24 12:16:04;;;;;;;5.35;3.40;;;;;;;28.62;46.73;97030.28;5032224;28;20486;-72
2022/05/24 12:18:41;;;;;;;4.72;3.55;;;;;;;28.70;46.20;97018.44;5030884;28;20125;-73
2022/05/24 12:21:07;;;;;;;9.15;3.22;;;;;;;28.78;45.89;97015.47;5060995;28;20025;-73
2022/05/24 12:23:41;;;;;;;5.25;3.53;;;;;;;28.83;45.82;97021.34;5030462;28;20021;-74